Time;durP1;ratioP1;P1;durP2;ratioP2;P2;SDS_P1;SDS_P2;PMS_P1;PMS_P2;Temp;Humidity;BMP_temperature;BMP_pressure;BME280_temperature;BME280_humidity;BME280_pressure;Samples;Min_cycle;Max_cycle;Signal;HPM_P1;HPM_P2
2022/04/22 00:00:40;;;;;;;1.05;1.05;;;6.50;99.90;;;;;;5245877;28;20031;-78
2022/04/22 00:03:14;;;;;;;1.25;1.25;;;6.40;99.90;;;;;;5226092;28;20029;-79
2022/04/22 00:05:45;;;;;;;1.55;1.55;;;6.40;99.90;;;;;;5232963;28;20039;-78
2022/04/22 00:08:17;;;;;;;0.95;0.95;;;6.30;99.90;;;;;;5245327;28;20020;-79
2022/04/22 00:13:38;;;;;;;0.50;0.50;;;6.20;99.90;;;;;;5242953;28;20037;-78
2022/04/22 00:16:09;;;;;;;0.70;0.70;;;6.10;99.90;;;;;;5246073;28;20028;-77
2022/04/22 00:18:40;;;;;;;0.82;0.82;;;6.10;99.90;;;;;;5210312;28;20035;-77
2022/04/22 00:21:15;;;;;;;1.15;1.15;;;6.10;99.90;;;;;;5174424;28;20039;-79
2022/04/22 00:23:54;;;;;;;0.95;0.95;;;6.10;99.90;;;;;;5225693;28;20448;-77
2022/04/22 00:26:25;;;;;;;0.88;0.88;;;6.20;99.90;;;;;;5224519;28;20032;-78
2022/04/22 00:28:56;;;;;;;0.77;0.77;;;6.20;99.90;;;;;;5226379;28;20024;-77
2022/04/22 00:31:27;;;;;;;0.70;0.70;;;6.20;99.90;;;;;;5228474;28;20031;-77
2022/04/22 00:33:59;;;;;;;3.03;2.22;;;6.20;99.90;;;;;;5211169;28;20025;-79
2022/04/22 00:36:38;;;;;;;0.50;0.50;;;6.20;99.90;;;;;;5229199;28;20025;-76
2022/04/22 00:39:12;;;;;;;1.17;1.17;;;6.20;99.90;;;;;;5228239;28;20033;-77
2022/04/22 00:41:43;;;;;;;0.77;0.77;;;6.10;99.90;;;;;;5227060;28;20027;-78
2022/04/22 00:44:17;;;;;;;0.50;0.50;;;6.10;99.90;;;;;;5233752;28;20037;-78
2022/04/22 00:46:52;;;;;;;1.00;1.00;;;6.10;99.90;;;;;;5250676;28;20044;-79
2022/04/22 00:49:25;;;;;;;0.65;0.65;;;6.10;99.90;;;;;;5233344;28;20041;-76
2022/04/22 00:51:56;;;;;;;0.50;0.50;;;6.10;99.90;;;;;;5232483;28;20337;-77
2022/04/22 00:54:30;;;;;;;0.50;0.50;;;6.00;99.90;;;;;;5253641;28;20047;-77
2022/04/22 00:57:02;;;;;;;0.80;0.80;;;6.00;99.90;;;;;;5256006;28;20031;-77
2022/04/22 00:59:38;;;;;;;1.45;1.35;;;5.90;99.90;;;;;;5257312;28;20031;-76
2022/04/22 01:02:11;;;;;;;0.70;0.70;;;5.90;99.90;;;;;;5257801;28;20039;-77
2022/04/22 01:10:23;;;;;;;0.50;0.50;;;6.00;99.90;;;;;;5255500;28;20020;-77
2022/04/22 01:12:57;;;;;;;0.65;0.65;;;6.10;99.90;;;;;;5254687;28;20349;-77
2022/04/22 01:15:28;;;;;;;1.00;1.00;;;6.10;99.90;;;;;;5254459;28;20029;-79
2022/04/22 01:18:04;;;;;;;0.40;0.40;;;6.00;99.90;;;;;;5252271;28;20040;-78
2022/04/22 01:20:36;;;;;;;0.60;0.60;;;6.10;99.90;;;;;;5252359;28;20044;-77
2022/04/22 01:23:10;;;;;;;0.90;0.90;;;6.00;99.90;;;;;;5227815;28;20041;-77
2022/04/22 01:25:45;;;;;;;0.93;0.93;;;6.30;99.90;;;;;;5234259;28;20033;-78
2022/04/22 01:28:22;;;;;;;1.17;1.17;;;6.50;99.90;;;;;;5245204;28;20031;-76
2022/04/22 01:31:02;;;;;;;0.80;0.80;;;6.70;99.90;;;;;;5229988;28;20040;-78
2022/04/22 01:33:35;;;;;;;0.70;0.70;;;6.80;99.90;;;;;;5247218;28;20064;-77
2022/04/22 01:36:08;;;;;;;0.98;0.98;;;6.90;99.90;;;;;;5229908;28;20062;-79
2022/04/22 01:38:41;;;;;;;0.93;0.93;;;6.90;99.90;;;;;;5232682;28;20346;-78
2022/04/22 01:41:13;;;;;;;0.52;0.52;;;6.90;99.90;;;;;;5232627;28;20042;-78
2022/04/22 01:43:47;;;;;;;0.70;0.70;;;6.90;99.90;;;;;;5250796;28;20035;-77
2022/04/22 01:46:19;;;;;;;1.15;1.13;;;6.80;99.90;;;;;;5248599;28;20034;-78
2022/04/22 01:48:50;;;;;;;0.60;0.60;;;6.90;99.90;;;;;;5230026;28;20032;-77
2022/04/22 01:51:26;;;;;;;0.60;0.60;;;6.80;99.90;;;;;;5228251;28;20469;-77
2022/04/22 01:54:00;;;;;;;0.68;0.68;;;6.70;99.90;;;;;;5207061;28;20375;-78
2022/04/22 01:56:32;;;;;;;0.80;0.80;;;6.70;99.90;;;;;;5228657;28;20021;-79
2022/04/22 01:59:12;;;;;;;0.60;0.60;;;6.70;99.90;;;;;;5224899;28;20028;-76
2022/04/22 02:01:45;;;;;;;0.50;0.50;;;6.70;99.90;;;;;;5243733;28;20479;-78
2022/04/22 02:04:16;;;;;;;0.70;0.70;;;6.70;99.90;;;;;;5235275;28;20040;-78
2022/04/22 02:06:48;;;;;;;0.90;0.90;;;6.70;99.90;;;;;;5246301;28;20020;-78
2022/04/22 02:09:21;;;;;;;1.13;1.13;;;6.80;99.90;;;;;;5240713;28;20024;-76
2022/04/22 02:11:53;;;;;;;0.85;0.85;;;6.80;99.90;;;;;;5229623;28;20028;-78
2022/04/22 02:14:25;;;;;;;0.60;0.60;;;6.80;99.90;;;;;;5229448;28;20318;-76
2022/04/22 02:16:56;;;;;;;0.90;0.90;;;6.80;99.90;;;;;;5230709;28;20517;-76
2022/04/22 02:19:31;;;;;;;5.00;2.15;;;6.80;99.90;;;;;;5229717;28;20029;-78
2022/04/22 02:22:03;;;;;;;2.75;1.13;;;6.90;99.90;;;;;;5229615;28;20028;-78
2022/04/22 02:24:35;;;;;;;1.02;1.02;;;6.80;99.90;;;;;;5230086;28;20038;-78
2022/04/22 02:30:01;;;;;;;0.77;0.77;;;6.80;99.90;;;;;;5248923;28;20021;-74
2022/04/22 02:32:35;;;;;;;1.05;1.05;;;6.80;99.90;;;;;;5248050;28;20026;-77
2022/04/22 02:35:09;;;;;;;0.70;0.70;;;6.90;99.90;;;;;;5213461;28;20495;-76
2022/04/22 02:37:40;;;;;;;;;;;6.90;99.90;;;;;;5241630;28;20386;-78
2022/04/22 02:45:54;;;;;;;1.25;1.25;;;6.80;99.90;;;;;;5249199;28;20033;-76
2022/04/22 02:48:28;;;;;;;1.13;1.00;;;6.80;99.90;;;;;;5231930;28;20032;-78
2022/04/22 02:51:01;;;;;;;1.08;1.08;;;6.70;99.90;;;;;;5247520;28;20042;-75
2022/04/22 02:53:35;;;;;;;0.90;0.90;;;6.80;99.90;;;;;;5247265;28;20025;-77
2022/04/22 02:56:07;;;;;;;0.47;0.47;;;6.70;99.90;;;;;;5247359;28;20021;-77
2022/04/22 02:58:41;;;;;;;1.23;1.23;;;6.80;99.90;;;;;;5247443;28;20028;-79
2022/04/22 03:01:14;;;;;;;1.23;1.23;;;6.80;99.90;;;;;;5235182;28;20031;-78
2022/04/22 03:03:50;;;;;;;1.13;1.13;;;6.90;99.90;;;;;;5237155;28;20028;-78
2022/04/22 03:06:26;;;;;;;0.90;0.90;;;6.90;99.90;;;;;;5247881;28;20044;-77
2022/04/22 03:08:59;;;;;;;0.90;0.90;;;6.90;99.90;;;;;;5216153;28;20027;-78
2022/04/22 03:11:34;;;;;;;1.48;1.48;;;7.00;99.90;;;;;;5237773;28;20250;-78
2022/04/22 03:14:08;;;;;;;0.50;0.50;;;7.00;99.90;;;;;;5239218;28;20027;-76
2022/04/22 03:16:41;;;;;;;0.65;0.65;;;7.10;99.90;;;;;;5214611;28;20029;-78
2022/04/22 03:19:12;;;;;;;0.43;0.43;;;7.20;99.90;;;;;;5228099;28;20039;-76
2022/04/22 03:21:51;;;;;;;0.47;0.47;;;7.10;99.90;;;;;;5228790;28;20039;-78
2022/04/22 03:24:22;;;;;;;0.43;0.43;;;7.10;99.90;;;;;;5209599;28;20043;-77
2022/04/22 03:26:55;;;;;;;0.88;0.88;;;7.20;99.90;;;;;;5241552;28;20028;-78
2022/04/22 03:29:31;;;;;;;1.17;1.17;;;7.30;99.90;;;;;;5226814;28;20024;-78
2022/04/22 03:32:05;;;;;;;0.82;0.82;;;7.30;99.90;;;;;;5226327;28;20043;-78
2022/04/22 03:34:39;;;;;;;0.73;0.73;;;7.40;99.90;;;;;;5246030;28;20015;-76
2022/04/22 03:37:10;;;;;;;0.70;0.70;;;7.50;99.90;;;;;;5228798;28;20028;-79
2022/04/22 03:39:43;;;;;;;0.60;0.60;;;7.40;99.90;;;;;;5228964;28;20035;-77
2022/04/22 03:42:17;;;;;;;1.17;0.88;;;7.50;99.90;;;;;;5245343;28;20416;-78
2022/04/22 03:44:48;;;;;;;0.63;0.63;;;7.50;99.90;;;;;;5228149;28;20186;-77
2022/04/22 03:47:21;;;;;;;0.95;0.95;;;7.50;99.90;;;;;;5246254;28;20032;-77
2022/04/22 03:49:59;;;;;;;0.70;0.70;;;7.60;99.90;;;;;;5246136;28;20545;-78
2022/04/22 03:52:33;;;;;;;1.23;1.23;;;7.60;99.90;;;;;;5244943;28;20233;-79
2022/04/22 03:55:06;;;;;;;0.88;0.88;;;7.60;99.90;;;;;;5227639;28;20074;-77
2022/04/22 04:00:27;;;;;;;0.82;0.82;;;7.70;99.90;;;;;;5237119;28;20027;-79
2022/04/22 04:02:58;;;;;;;1.20;1.20;;;7.70;99.90;;;;;;5231360;28;20040;-78
2022/04/22 04:05:33;;;;;;;1.13;1.13;;;7.70;99.90;;;;;;5231464;28;20037;-78
2022/04/22 04:08:10;;;;;;;1.17;1.13;;;7.70;99.90;;;;;;5231320;28;20036;-77
2022/04/22 04:16:28;;;;;;;1.02;1.02;;;7.80;99.90;;;;;;5245443;28;20024;-77
2022/04/22 04:24:40;;;;;;;1.15;1.15;;;8.00;99.90;;;;;;5246483;28;20024;-78
2022/04/22 04:27:18;;;;;;;1.90;1.35;;;8.00;99.90;;;;;;5245941;28;20039;-76
2022/04/22 04:29:49;;;;;;;1.05;1.05;;;8.00;99.90;;;;;;5249191;28;20023;-79
2022/04/22 04:32:23;;;;;;;1.13;1.13;;;8.00;99.90;;;;;;5211708;28;20047;-77
2022/04/22 04:34:57;;;;;;;2.42;2.28;;;8.00;99.90;;;;;;5233510;28;20563;-78
2022/04/22 04:37:31;;;;;;;0.80;0.80;;;8.00;99.90;;;;;;5228305;28;20254;-78
2022/04/22 04:40:05;;;;;;;0.90;0.90;;;8.00;99.90;;;;;;5210922;28;20036;-79
2022/04/22 04:42:41;;;;;;;1.45;1.45;;;8.10;99.90;;;;;;5229095;28;20037;-78
2022/04/22 04:45:15;;;;;;;0.82;0.82;;;8.10;99.90;;;;;;5211041;28;20043;-77
2022/04/22 04:47:46;;;;;;;1.52;1.52;;;8.20;99.90;;;;;;5246047;28;20028;-78
2022/04/22 04:50:23;;;;;;;1.00;1.00;;;8.20;99.90;;;;;;5230961;28;20052;-79
2022/04/22 04:52:57;;;;;;;0.85;0.85;;;8.30;99.90;;;;;;5249299;28;20036;-78
2022/04/22 04:55:30;;;;;;;1.10;1.10;;;8.30;99.90;;;;;;5248181;28;20032;-77
2022/04/22 04:58:04;;;;;;;0.80;0.80;;;8.20;99.90;;;;;;5248975;28;20335;-78
2022/04/22 05:00:36;;;;;;;1.40;1.35;;;8.20;99.90;;;;;;5248100;28;20034;-80
2022/04/22 05:03:08;;;;;;;1.15;1.15;;;8.30;99.90;;;;;;5244938;28;20036;-80
2022/04/22 05:05:43;;;;;;;1.80;1.70;;;8.30;99.90;;;;;;5237310;28;20052;-78
2022/04/22 05:08:14;;;;;;;;;;;8.30;99.90;;;;;;5248452;28;20040;-78
2022/04/22 05:10:45;;;;;;;1.15;1.15;;;8.30;99.90;;;;;;5234794;28;19900;-79
2022/04/22 05:13:17;;;;;;;1.33;1.33;;;8.40;99.90;;;;;;5201085;28;20039;-78
2022/04/22 05:15:50;;;;;;;1.02;1.02;;;8.50;99.90;;;;;;5246270;28;20033;-77
2022/04/22 05:18:21;;;;;;;0.73;0.73;;;8.40;99.90;;;;;;5246568;28;20051;-75
2022/04/22 05:20:52;;;;;;;1.35;1.27;;;8.50;99.90;;;;;;5237402;28;20029;-77
2022/04/22 05:23:24;;;;;;;0.75;0.75;;;8.50;99.90;;;;;;5236636;28;20029;-77
2022/04/22 05:26:01;;;;;;;0.80;0.80;;;8.60;99.90;;;;;;5223532;28;20033;-78
2022/04/22 05:28:32;;;;;;;0.85;0.85;;;8.50;99.90;;;;;;5232578;28;20032;-78
2022/04/22 05:33:54;;;;;;;0.90;0.90;;;8.50;99.90;;;;;;5234951;28;20358;-78
2022/04/22 05:36:31;;;;;;;1.55;1.40;;;8.50;99.90;;;;;;5246911;28;20048;-80
2022/04/22 05:39:08;;;;;;;1.17;1.17;;;8.50;99.90;;;;;;5229544;28;20062;-78
2022/04/22 05:41:40;;;;;;;1.33;1.33;;;8.60;99.90;;;;;;5229515;28;20028;-79
2022/04/22 05:44:16;;;;;;;0.63;0.63;;;8.60;99.90;;;;;;5247514;28;20042;-77
2022/04/22 05:46:53;;;;;;;1.10;1.10;;;8.60;99.90;;;;;;5229269;28;20032;-78
2022/04/22 05:49:27;;;;;;;0.60;0.60;;;8.50;99.90;;;;;;5192455;28;20036;-77
2022/04/22 05:52:00;;;;;;;1.10;1.10;;;8.50;99.90;;;;;;5227016;28;20025;-76
2022/04/22 05:54:34;;;;;;;1.30;1.30;;;8.50;99.90;;;;;;5226557;28;20024;-79
2022/04/22 05:57:05;;;;;;;0.63;0.63;;;8.50;99.90;;;;;;5238894;28;20041;-80
2022/04/22 05:59:37;;;;;;;1.50;1.50;;;8.50;99.90;;;;;;5238406;28;20043;-77
2022/04/22 06:02:11;;;;;;;1.05;1.05;;;8.50;99.90;;;;;;5248062;28;20210;-76
2022/04/22 06:04:42;;;;;;;1.30;1.30;;;8.60;99.90;;;;;;5203169;28;20043;-77
2022/04/22 06:07:13;;;;;;;1.00;1.00;;;8.70;99.90;;;;;;5246688;28;20021;-77
2022/04/22 06:12:35;;;;;;;0.93;0.93;;;8.80;99.90;;;;;;5247172;28;20090;-75
2022/04/22 06:15:09;;;;;;;1.10;1.10;;;8.80;99.90;;;;;;5246669;28;20030;-76
2022/04/22 06:17:43;;;;;;;1.33;1.23;;;8.60;99.90;;;;;;5225247;28;20081;-77
2022/04/22 06:20:15;;;;;;;1.05;1.05;;;8.50;99.90;;;;;;5208554;28;20035;-77
2022/04/22 06:22:47;;;;;;;0.95;0.95;;;8.60;99.90;;;;;;5227686;28;20029;-76
2022/04/22 06:25:21;;;;;;;1.42;1.42;;;8.60;99.90;;;;;;5210190;28;20032;-77
2022/04/22 06:27:54;;;;;;;5.07;3.03;;;8.60;99.90;;;;;;5242036;28;20047;-75
2022/04/22 06:30:28;;;;;;;1.27;1.27;;;8.80;99.90;;;;;;5241418;28;20021;-75
2022/04/22 06:33:03;;;;;;;1.60;1.50;;;8.80;99.90;;;;;;5227818;28;20025;-77
2022/04/22 06:35:34;;;;;;;;;;;8.70;99.90;;;;;;5210660;28;20982;-77
2022/04/22 06:38:11;;;;;;;0.90;0.90;;;8.60;99.90;;;;;;5227445;28;19915;-77
2022/04/22 06:46:25;;;;;;;0.90;0.90;;;8.20;99.90;;;;;;5251478;28;20017;-78
2022/04/22 06:48:56;;;;;;;2.20;2.05;;;8.40;99.90;;;;;;5236181;28;20055;-76
2022/04/22 06:51:33;;;;;;;1.63;1.63;;;8.40;99.90;;;;;;5229122;28;20329;-78
2022/04/22 06:54:05;;;;;;;1.25;1.25;;;8.50;99.90;;;;;;5201352;28;20042;-78
2022/04/22 06:56:42;;;;;;;1.35;1.35;;;8.50;99.90;;;;;;5225766;28;20069;-77
2022/04/22 06:59:19;;;;;;;1.05;0.98;;;8.50;99.90;;;;;;5239625;28;20028;-79
2022/04/22 07:01:52;;;;;;;1.02;1.02;;;8.30;99.90;;;;;;5248884;28;20033;-79
2022/04/22 07:04:24;;;;;;;1.20;1.20;;;8.40;99.90;;;;;;5219969;28;20046;-78
2022/04/22 07:06:56;;;;;;;1.33;1.23;;;8.30;99.90;;;;;;5248185;28;20020;-77
2022/04/22 07:09:32;;;;;;;0.85;0.85;;;8.40;99.90;;;;;;5248478;28;20034;-77
2022/04/22 07:12:04;;;;;;;1.02;1.02;;;8.50;99.90;;;;;;5248477;28;20516;-78
2022/04/22 07:14:37;;;;;;;1.70;1.70;;;8.50;99.90;;;;;;5230669;28;20046;-78
2022/04/22 07:17:09;;;;;;;1.00;1.00;;;8.40;99.90;;;;;;5249290;28;20217;-76
2022/04/22 07:19:41;;;;;;;1.63;1.55;;;8.30;99.90;;;;;;5237234;28;20035;-78
2022/04/22 07:22:13;;;;;;;1.10;1.10;;;8.20;99.90;;;;;;5227158;28;20025;-79
2022/04/22 07:24:46;;;;;;;1.30;1.30;;;8.20;99.90;;;;;;5242243;28;20046;-75
2022/04/22 07:27:22;;;;;;;0.80;0.80;;;8.20;99.90;;;;;;5239115;28;20029;-77
2022/04/22 07:29:55;;;;;;;1.20;1.20;;;8.00;99.90;;;;;;5250365;28;20255;-78
2022/04/22 07:32:29;;;;;;;0.95;0.93;;;8.00;99.90;;;;;;5252043;28;20040;-79
2022/04/22 07:35:12;;;;;;;1.00;1.00;;;8.00;99.90;;;;;;5240549;28;20037;-77
2022/04/22 07:37:48;;;;;;;1.05;1.05;;;8.10;99.90;;;;;;5214284;28;20051;-77
2022/04/22 07:40:22;;;;;;;0.90;0.90;;;8.20;99.90;;;;;;5230822;28;20041;-78
2022/04/22 07:48:36;;;;;;;1.30;1.30;;;8.50;99.90;;;;;;5253485;28;20042;-78
2022/04/22 07:51:10;;;;;;;1.05;1.05;;;8.70;99.90;;;;;;5255300;28;20046;-79
2022/04/22 07:53:41;;;;;;;1.58;1.50;;;8.80;99.90;;;;;;5253573;28;20027;-77
2022/04/22 07:56:15;;;;;;;1.08;1.08;;;8.80;99.90;;;;;;5252011;28;20031;-80
2022/04/22 07:58:52;;;;;;;1.45;1.45;;;8.70;99.90;;;;;;5254598;28;20095;-78
2022/04/22 08:01:24;;;;;;;1.80;1.70;;;8.70;99.90;;;;;;5253495;28;20310;-78
2022/04/22 08:03:58;;;;;;;1.77;1.73;;;8.80;99.90;;;;;;5253518;28;20017;-79
2022/04/22 08:06:30;;;;;;;1.88;1.77;;;8.90;99.90;;;;;;5238110;28;20048;-77
2022/04/22 08:09:02;;;;;;;1.13;1.08;;;9.00;99.90;;;;;;5233160;28;20035;-77
2022/04/22 08:11:34;;;;;;;1.13;1.13;;;9.10;99.90;;;;;;5252383;28;20020;-78
2022/04/22 08:14:06;;;;;;;0.93;0.93;;;9.30;99.90;;;;;;5250021;28;20020;-82
2022/04/22 08:16:43;;;;;;;1.17;1.17;;;9.40;99.90;;;;;;5242631;28;20044;-79
2022/04/22 08:19:14;;;;;;;1.00;1.00;;;9.40;99.90;;;;;;5252862;28;20460;-79
2022/04/22 08:21:45;;;;;;;0.80;0.80;;;9.30;99.90;;;;;;5231615;28;20047;-77
2022/04/22 08:24:16;;;;;;;0.80;0.80;;;9.30;99.90;;;;;;5237781;28;20028;-77
2022/04/22 08:26:48;;;;;;;1.45;1.45;;;9.50;99.90;;;;;;5230549;28;20045;-77
2022/04/22 08:29:19;;;;;;;2.42;2.33;;;9.50;99.90;;;;;;5242628;28;20258;-77
2022/04/22 08:31:52;;;;;;;1.27;1.27;;;9.40;99.90;;;;;;5252886;28;20025;-75
2022/04/22 08:34:23;;;;;;;1.05;1.05;;;9.30;99.90;;;;;;5252100;28;20036;-76
2022/04/22 08:36:55;;;;;;;1.35;1.35;;;9.40;99.90;;;;;;5252858;28;20020;-76
2022/04/22 08:39:27;;;;;;;1.35;1.35;;;9.40;99.90;;;;;;5233211;28;20558;-77
2022/04/22 08:42:01;;;;;;;1.05;1.05;;;9.40;99.90;;;;;;5249904;28;20044;-77
2022/04/22 08:44:36;;;;;;;1.77;1.67;;;9.60;99.90;;;;;;5251616;28;20020;-77
2022/04/22 08:50:01;;;;;;;1.05;1.05;;;9.80;99.90;;;;;;5251387;28;20035;-78
2022/04/22 08:52:38;;;;;;;0.73;0.73;;;9.70;99.90;;;;;;5248580;28;20034;-79
2022/04/22 08:55:13;;;;;;;1.23;1.23;;;9.60;99.90;;;;;;5231785;28;20033;-78
2022/04/22 08:57:46;;;;;;;0.93;0.93;;;9.40;99.90;;;;;;5246391;28;20033;-77
2022/04/22 09:00:27;;;;;;;2.05;1.95;;;9.20;99.90;;;;;;5216285;28;20280;-78
2022/04/22 09:03:03;;;;;;;0.75;0.75;;;9.00;99.90;;;;;;5251067;28;20513;-77
2022/04/22 09:05:35;;;;;;;0.85;0.85;;;8.80;99.90;;;;;;5223874;28;20060;-78
2022/04/22 09:08:10;;;;;;;2.47;2.38;;;8.80;99.90;;;;;;5212063;28;20041;-77
2022/04/22 09:10:42;;;;;;;2.17;2.08;;;8.70;99.90;;;;;;5217078;28;20035;-75
2022/04/22 09:13:27;;;;;;;1.15;1.15;;;8.70;99.90;;;;;;5215988;28;20043;-76
2022/04/22 09:16:06;;;;;;;1.35;1.35;;;8.70;99.90;;;;;;5230522;28;20039;-77
2022/04/22 09:18:39;;;;;;;0.77;0.77;;;8.90;99.90;;;;;;5240060;28;20028;-76
2022/04/22 09:21:18;;;;;;;1.92;1.83;;;9.00;99.90;;;;;;5241608;28;20036;-77
2022/04/22 09:23:49;;;;;;;1.35;1.25;;;9.30;99.90;;;;;;5219755;28;20050;-78
2022/04/22 09:26:23;;;;;;;1.30;1.30;;;9.60;99.90;;;;;;5232937;28;20033;-80
2022/04/22 09:29:00;;;;;;;1.98;1.90;;;9.80;99.90;;;;;;5238123;28;20059;-77
2022/04/22 09:31:49;;;;;;;0.80;0.80;;;9.90;99.90;;;;;;5229598;28;20043;-77
2022/04/22 09:34:39;;;;;;;1.63;1.52;;;9.90;99.90;;;;;;5237796;28;20032;-77
2022/04/22 09:43:23;;;;;;;3.03;2.17;;;9.80;99.90;;;;;;5186121;28;20032;-78
2022/04/22 09:45:55;;;;;;;1.30;1.30;;;9.80;99.90;;;;;;5185985;28;20018;-77
2022/04/22 09:48:26;;;;;;;1.70;1.67;;;9.90;99.90;;;;;;5203856;28;20043;-77
2022/04/22 09:50:57;;;;;;;1.05;1.05;;;9.80;99.90;;;;;;5250075;28;20036;-78
2022/04/22 09:53:43;;;;;;;1.30;1.30;;;9.80;99.90;;;;;;5251277;28;20020;-78
2022/04/22 09:56:16;;;;;;;1.55;1.48;;;9.80;99.90;;;;;;5250150;28;20223;-78
2022/04/22 09:58:47;;;;;;;1.20;1.20;;;9.90;99.90;;;;;;5249954;28;20042;-79
2022/04/22 10:01:19;;;;;;;1.73;1.65;;;9.80;99.90;;;;;;5215199;28;20044;-78
2022/04/22 10:03:53;;;;;;;1.80;1.73;;;9.70;99.90;;;;;;5244604;28;20038;-78
2022/04/22 10:06:25;;;;;;;2.20;2.10;;;9.50;99.90;;;;;;5220617;28;20049;-78
2022/04/22 10:08:56;;;;;;;2.08;1.98;;;9.50;99.90;;;;;;5214924;28;20047;-77
2022/04/22 10:11:29;;;;;;;1.60;1.50;;;9.40;99.90;;;;;;5251179;28;20017;-78
2022/04/22 10:14:00;;;;;;;4.13;1.85;;;9.40;99.90;;;;;;5251391;28;20017;-76
2022/04/22 10:16:34;;;;;;;2.40;2.05;;;9.40;99.90;;;;;;5250906;28;20020;-78
2022/04/22 10:19:09;;;;;;;0.90;0.90;;;9.30;99.90;;;;;;5246064;28;20242;-78
2022/04/22 10:21:41;;;;;;;0.80;0.80;;;9.20;99.90;;;;;;5230838;28;20033;-78
2022/04/22 10:24:13;;;;;;;1.95;1.85;;;9.30;99.90;;;;;;5229515;28;20468;-77
2022/04/22 10:26:45;;;;;;;1.35;1.35;;;9.30;99.90;;;;;;5212641;28;20016;-79
2022/04/22 10:29:19;;;;;;;1.80;1.70;;;9.30;99.90;;;;;;5199303;28;20030;-77
2022/04/22 10:31:51;;;;;;;1.40;1.40;;;9.10;99.90;;;;;;5252577;28;20022;-79
2022/04/22 10:34:41;;;;;;;1.35;1.35;;;9.10;99.90;;;;;;5235153;28;20032;-79
2022/04/22 10:37:33;;;;;;;0.90;0.90;;;9.10;99.90;;;;;;5230654;28;20033;-80
2022/04/22 10:40:16;;;;;;;0.80;0.80;;;9.00;99.90;;;;;;5230594;28;20234;-77
2022/04/22 10:42:49;;;;;;;1.58;1.58;;;9.00;99.90;;;;;;5230263;28;20574;-75
2022/04/22 10:48:25;;;;;;;2.03;1.92;;;9.20;99.90;;;;;;5225925;28;20054;-78
2022/04/22 10:51:00;;;;;;;1.85;1.70;;;9.10;99.90;;;;;;5249335;28;20028;-80
2022/04/22 10:53:39;;;;;;;2.20;2.10;;;9.10;99.90;;;;;;5249865;28;20297;-77
2022/04/22 10:56:26;;;;;;;0.80;0.80;;;9.10;99.90;;;;;;5249972;28;20033;-77
2022/04/22 10:59:15;;;;;;;2.10;2.00;;;9.00;99.90;;;;;;5229434;28;20035;-80
2022/04/22 11:01:48;;;;;;;1.15;1.15;;;8.90;99.90;;;;;;5211454;28;20042;-79
2022/04/22 11:04:24;;;;;;;2.10;1.98;;;9.10;99.90;;;;;;5233057;28;20020;-78
2022/04/22 11:06:57;;;;;;;2.08;1.98;;;9.10;99.90;;;;;;5249016;28;20017;-80
2022/04/22 11:09:30;;;;;;;1.20;1.20;;;9.10;99.90;;;;;;5249226;28;20035;-77
2022/04/22 11:12:01;;;;;;;1.58;1.48;;;8.90;99.90;;;;;;5238353;28;20042;-79
2022/04/22 11:14:45;;;;;;;1.10;1.10;;;8.90;99.90;;;;;;5243214;28;20019;-80
2022/04/22 11:17:44;;;;;;;1.55;1.52;;;8.70;99.90;;;;;;5259055;28;20046;-78
2022/04/22 11:20:17;;;;;;;3.05;2.88;;;8.80;99.90;;;;;;5249595;28;20027;-79
2022/04/22 11:22:58;;;;;;;0.70;0.70;;;8.90;99.90;;;;;;5256493;28;20031;-78
2022/04/22 11:25:29;;;;;;;1.63;1.52;;;9.00;99.90;;;;;;5219889;28;20024;-78
2022/04/22 11:28:02;;;;;;;1.33;1.33;;;9.10;99.90;;;;;;5230797;28;20047;-77
2022/04/22 11:30:34;;;;;;;1.95;1.85;;;9.10;99.90;;;;;;5234223;28;20036;-78
2022/04/22 11:33:27;;;;;;;1.48;1.48;;;9.10;99.90;;;;;;5245125;28;20459;-79
2022/04/22 11:36:03;;;;;;;1.02;1.02;;;9.40;99.90;;;;;;5244576;28;20035;-77
2022/04/22 11:38:37;;;;;;;1.45;1.45;;;9.50;99.90;;;;;;5227539;28;20048;-79
2022/04/22 11:41:13;;;;;;;2.80;2.60;;;9.60;99.90;;;;;;5227405;28;20029;-79
2022/04/22 11:43:46;;;;;;;1.70;1.65;;;9.70;99.90;;;;;;5233286;28;20031;-77
2022/04/22 11:46:18;;;;;;;1.17;1.17;;;9.80;99.90;;;;;;5206456;28;20039;-79
2022/04/22 11:48:53;;;;;;;2.17;2.08;;;9.80;99.90;;;;;;5230305;28;20050;-79
2022/04/22 11:51:28;;;;;;;2.17;2.03;;;9.70;99.90;;;;;;5248471;28;20050;-78
2022/04/22 11:54:01;;;;;;;1.58;1.48;;;9.70;99.90;;;;;;5263029;28;20086;-79
2022/04/22 11:56:35;;;;;;;1.40;1.40;;;9.90;99.90;;;;;;5253956;28;20021;-79
2022/04/22 11:59:12;;;;;;;1.48;1.48;;;10.10;99.90;;;;;;5222253;28;20096;-77
2022/04/22 12:08:05;;;;;;;1.27;1.27;;;9.80;99.90;;;;;;5238711;28;20024;-75
2022/04/22 12:10:37;;;;;;;1.17;1.17;;;9.70;99.90;;;;;;5246252;28;20247;-76
2022/04/22 12:13:13;;;;;;;1.70;1.70;;;9.60;99.90;;;;;;5243077;28;20035;-77
2022/04/22 12:15:48;;;;;;;0.90;0.90;;;9.50;99.90;;;;;;5249220;28;20028;-76
2022/04/22 12:18:48;;;;;;;;;;;9.50;99.90;;;;;;5232048;28;20044;-76
2022/04/22 12:21:23;;;;;;;1.92;1.88;;;9.40;99.90;;;;;;5226510;28;19904;-77
2022/04/22 12:24:04;;;;;;;1.05;1.05;;;9.40;99.90;;;;;;5234836;28;20031;-79
2022/04/22 12:26:39;;;;;;;2.28;2.17;;;9.40;99.90;;;;;;5251540;28;20043;-78
2022/04/22 12:29:20;;;;;;;;;;;9.50;99.90;;;;;;5254336;28;20321;-75
2022/04/22 12:32:00;;;;;;;0.90;0.90;;;9.60;99.90;;;;;;5257641;28;19901;-78
2022/04/22 12:34:34;;;;;;;1.73;1.65;;;9.70;99.90;;;;;;5236862;28;20028;-78
2022/04/22 12:37:09;;;;;;;1.75;1.67;;;9.70;99.90;;;;;;5253983;28;20019;-78
2022/04/22 12:39:49;;;;;;;0.90;0.90;;;9.70;99.90;;;;;;5219047;28;20078;-78
2022/04/22 12:42:22;;;;;;;1.73;1.73;;;9.50;99.90;;;;;;5232339;28;20020;-76
2022/04/22 12:54:16;;;;;;;1.45;1.45;;;9.20;99.90;;;;;;5269565;28;20031;-77
2022/04/22 12:56:54;;;;;;;2.03;1.92;;;9.10;99.90;;;;;;5243085;28;20016;-78
2022/04/22 12:59:54;;;;;;;1.27;1.27;;;9.00;99.90;;;;;;5260948;28;20250;-79
2022/04/22 13:02:32;;;;;;;1.52;1.52;;;8.90;99.90;;;;;;5244688;28;20039;-79
2022/04/22 13:05:06;;;;;;;1.55;1.55;;;8.80;99.90;;;;;;5236104;28;20063;-80
2022/04/22 13:07:46;;;;;;;1.98;1.92;;;8.80;99.90;;;;;;5251829;28;20035;-79
2022/04/22 13:10:20;;;;;;;1.20;1.20;;;8.80;99.90;;;;;;5232799;28;20035;-79
2022/04/22 13:12:53;;;;;;;1.17;1.17;;;8.80;99.90;;;;;;5234540;28;20032;-78
2022/04/22 13:15:32;;;;;;;1.08;1.08;;;8.80;99.90;;;;;;5252432;28;20043;-79
2022/04/22 13:18:03;;;;;;;2.17;2.05;;;8.80;99.90;;;;;;5217956;28;20038;-79
2022/04/22 13:20:37;;;;;;;1.25;1.25;;;8.70;99.90;;;;;;5241382;28;20203;-78
2022/04/22 13:23:08;;;;;;;1.20;1.20;;;8.70;99.90;;;;;;5249763;28;20029;-79
2022/04/22 13:25:42;;;;;;;1.00;1.00;;;8.80;99.90;;;;;;5251878;28;20028;-79
2022/04/22 13:28:19;;;;;;;1.20;1.10;;;8.80;99.90;;;;;;5253114;28;20024;-78
2022/04/22 13:30:53;;;;;;;1.10;1.10;;;8.70;99.90;;;;;;5243133;28;20568;-79
2022/04/22 13:33:25;;;;;;;0.70;0.70;;;8.70;99.90;;;;;;5210402;28;20043;-75
2022/04/22 13:36:02;;;;;;;1.70;1.60;;;8.80;99.90;;;;;;5233422;28;20033;-78
2022/04/22 13:38:35;;;;;;;1.20;1.20;;;8.80;99.90;;;;;;5243455;28;20099;-79
2022/04/22 13:41:06;;;;;;;1.70;1.70;;;8.90;99.90;;;;;;5244347;28;20051;-78
2022/04/22 13:43:37;;;;;;;1.02;1.02;;;8.90;99.90;;;;;;5249769;28;20032;-78
2022/04/22 13:54:43;;;;;;;1.58;1.48;;;9.10;99.90;;;;;;5251025;28;20028;-77
2022/04/22 13:57:14;;;;;;;0.80;0.80;;;9.10;99.90;;;;;;5243769;28;20024;-79
2022/04/22 13:59:53;;;;;;;1.50;1.50;;;9.20;99.90;;;;;;5240459;28;20031;-78
2022/04/22 14:02:25;;;;;;;2.72;2.63;;;9.10;99.90;;;;;;5256046;28;20448;-77
2022/04/22 14:04:58;;;;;;;1.60;1.50;;;9.10;99.90;;;;;;5226413;28;20045;-77
2022/04/22 14:07:32;;;;;;;1.08;1.08;;;9.10;99.90;;;;;;5234748;28;20032;-77
2022/04/22 14:10:06;;;;;;;1.80;1.70;;;9.20;99.90;;;;;;5229820;28;20051;-79
2022/04/22 14:12:38;;;;;;;1.08;1.08;;;9.10;99.90;;;;;;5241198;28;20325;-79
2022/04/22 14:15:09;;;;;;;1.85;1.77;;;9.10;99.90;;;;;;5213959;28;20040;-79
2022/04/22 14:17:44;;;;;;;1.23;1.23;;;9.10;99.90;;;;;;5232951;28;20035;-79
2022/04/22 14:20:15;;;;;;;0.77;0.77;;;9.10;99.90;;;;;;5211594;28;20037;-77
2022/04/22 14:22:47;;;;;;;1.02;1.02;;;9.00;99.90;;;;;;5229129;28;20025;-77
2022/04/22 14:25:18;;;;;;;1.23;1.23;;;9.00;99.90;;;;;;5238526;28;20032;-75
2022/04/22 14:27:50;;;;;;;1.25;1.25;;;8.90;99.90;;;;;;5231862;28;20028;-76
2022/04/22 14:30:21;;;;;;;1.05;1.05;;;8.90;99.90;;;;;;5248638;28;20039;-78
2022/04/22 14:32:53;;;;;;;1.15;1.15;;;8.90;99.90;;;;;;5249117;28;20027;-78
2022/04/22 14:35:27;;;;;;;1.60;1.60;;;8.80;99.90;;;;;;5249203;28;20039;-78
2022/04/22 14:37:58;;;;;;;0.90;0.90;;;8.90;99.90;;;;;;5248850;28;20024;-79
2022/04/22 14:40:30;;;;;;;0.80;0.80;;;9.00;99.90;;;;;;5250182;28;20475;-78
2022/04/22 14:43:02;;;;;;;1.35;1.35;;;9.00;99.90;;;;;;5230833;28;20024;-79
2022/04/22 14:45:36;;;;;;;1.85;1.73;;;9.10;99.90;;;;;;5249208;28;20032;-77
2022/04/22 14:48:07;;;;;;;1.00;1.00;;;9.10;99.90;;;;;;5231760;28;20028;-79
2022/04/22 14:50:40;;;;;;;1.65;1.58;;;9.10;99.90;;;;;;5249301;28;20032;-78
2022/04/22 14:53:12;;;;;;;0.85;0.85;;;9.10;99.90;;;;;;5228125;28;20032;-77
2022/04/22 14:55:47;;;;;;;1.00;1.00;;;9.10;99.90;;;;;;5212510;28;20036;-76
2022/04/22 14:58:18;;;;;;;1.85;1.75;;;9.20;99.90;;;;;;5215715;28;20125;-78